Weather History for KAEL - November, 2013

Change the Weather History Date:

Friday, November 22, 2013

  Actual Average Record
Temperature  
Mean Temperature 19 °F -  
Max Temperature 28 °F 37 °F 59 °F (2012)
Min Temperature 10 °F 22 °F 6 °F (1998)
Degree Days  
Heating Degree Days 46    
Moisture  
Dew Point 13 °F    
Average Humidity 73    
Maximum Humidity 100    
Minimum Humidity 47    
Precipitation  
Precipitation 0.00 in - - ()
Sea Level Pressure  
Sea Level Pressure 30.51 in    
Wind  
Wind Speed 10 mph (WNW)    
Max Wind Speed 16 mph    
Max Gust Speed 25 mph    
Visibility 10 miles    
Events Snow    
Averages and records for this station are not official NWS values.
T = Trace of Precipitation, MM = Missing Value Source: NWS Daily Summary

Daily Weather History Graph

Daily Weather History Graph

Search for Another Location

Airport or City:

Trip Planner

Search our weather history database for the weather conditions in past years. The results will help you decide how hot, cold, wet, or windy it might be!

Date:

Astronomy

Nov. 22, 2013 Rise Set
Actual Time 7:16 AM CST 4:42 PM CST
Civil Twilight 6:45 AM CST 5:13 PM CST
Nautical Twilight 6:10 AM CST 5:48 PM CST
Astronomical Twilight 5:35 AM CST 6:23 PM CST
Moon 9:17 PM CST (11/22) 10:58 AM CST (11/22)
Length of Visible Light 10h 28m
Length of Day
9h 25m
Waning Gibbous, 78% of the Moon is Illuminated
Nov 22
Waning Gibbous
Nov 25
Last Quarter
Dec 2
New
Dec 9
First Quarter
Dec 17
Full

Hourly Weather History & Observations

Time (CST) Temp. Windchill Dew Point Humidity Pressure Visibility Wind Dir Wind Speed Gust Speed Precip Events Conditions
12:13 AM 23.0 °F 9.6 °F 21.2 °F 93% 30.46 in 5.0 mi NNW 16.1 mph 25.3 mph N/A Snow Light Snow
12:33 AM 23.0 °F 11.7 °F 21.2 °F 93% 30.46 in 5.0 mi NNW 11.5 mph 19.6 mph N/A Snow Light Snow
12:53 AM 21.2 °F 8.3 °F 19.4 °F 93% 30.46 in 4.0 mi NNW 13.8 mph 18.4 mph N/A Snow Light Snow
1:13 AM 21.2 °F 8.3 °F 19.4 °F 93% 30.48 in 4.0 mi NNW 13.8 mph 18.4 mph N/A Snow Light Snow
1:33 AM 21.2 °F 8.3 °F 19.4 °F 93% 30.48 in 5.0 mi NNW 13.8 mph 17.3 mph N/A Snow Light Snow
1:53 AM 21.2 °F 10.9 °F 19.4 °F 93% 30.47 in 7.0 mi NNW 9.2 mph 16.1 mph N/A Snow Light Snow
2:13 AM 21.2 °F 8.9 °F 17.6 °F 86% 30.48 in 10.0 mi NNW 12.7 mph 18.4 mph N/A   Clear
2:33 AM 21.2 °F 8.3 °F 17.6 °F 86% 30.48 in 10.0 mi NNW 13.8 mph 18.4 mph N/A   Scattered Clouds
2:53 AM 21.2 °F 10.1 °F 15.8 °F 80% 30.48 in 10.0 mi NNW 10.4 mph 18.4 mph N/A   Mostly Cloudy
3:13 AM 21.2 °F 10.9 °F 15.8 °F 80% 30.49 in 10.0 mi NW 9.2 mph - N/A   Mostly Cloudy
3:33 AM 19.4 °F 10.4 °F 15.8 °F 86% 30.49 in 10.0 mi NNW 6.9 mph - N/A   Scattered Clouds
3:53 AM 19.4 °F 7.9 °F 15.8 °F 86% 30.49 in 10.0 mi NNW 10.4 mph - N/A   Clear
4:13 AM 19.4 °F 7.9 °F 15.8 °F 86% 30.49 in 10.0 mi NW 10.4 mph 16.1 mph N/A   Clear
4:33 AM 19.4 °F 8.6 °F 15.8 °F 86% 30.50 in 10.0 mi NW 9.2 mph - N/A   Clear
4:53 AM 17.6 °F 10.7 °F 14.0 °F 86% 30.51 in 10.0 mi NW 4.6 mph - N/A   Clear
5:13 AM 17.6 °F 8.2 °F 14.0 °F 86% 30.51 in 10.0 mi NW 6.9 mph - N/A   Clear
5:33 AM 15.8 °F 8.6 °F 12.2 °F 86% 30.52 in 10.0 mi NW 4.6 mph - N/A   Clear
5:53 AM 15.8 °F 10.2 °F 12.2 °F 86% 30.52 in 10.0 mi WNW 3.5 mph - N/A   Clear
6:13 AM 12.2 °F 4.3 °F 10.4 °F 92% 30.52 in 10.0 mi WNW 4.6 mph - N/A   Clear
6:33 AM 12.2 °F 2.9 °F 10.4 °F 92% 30.54 in 10.0 mi WNW 5.8 mph - N/A   Clear
6:53 AM 12.2 °F 4.3 °F 10.4 °F 92% 30.53 in 10.0 mi WNW 4.6 mph - N/A   Clear
7:13 AM 12.2 °F 1.7 °F 10.4 °F 92% 30.55 in 10.0 mi WNW 6.9 mph - N/A   Clear
7:33 AM 10.4 °F 0.8 °F 10.4 °F 100% 30.54 in 10.0 mi NW 5.8 mph - N/A   Clear
7:53 AM 12.2 °F - 10.4 °F 92% 30.53 in 10.0 mi Calm Calm - N/A   Clear
8:13 AM 12.2 °F 6.1 °F 10.4 °F 92% 30.53 in 10.0 mi WNW 3.5 mph - N/A   Clear
8:33 AM 12.2 °F 4.3 °F 10.4 °F 92% 30.53 in 10.0 mi WNW 4.6 mph - N/A   Clear
8:53 AM 14.0 °F 8.2 °F 10.4 °F 86% 30.53 in 10.0 mi WNW 3.5 mph - N/A   Clear
9:13 AM 15.8 °F 6.1 °F 10.4 °F 79% 30.56 in 10.0 mi West 6.9 mph - N/A   Clear
9:33 AM 14.0 °F 5.1 °F 10.4 °F 86% 30.57 in 10.0 mi NW 5.8 mph 16.1 mph N/A   Clear
9:53 AM 15.8 °F 8.6 °F 12.2 °F 86% 30.57 in 10.0 mi NW 4.6 mph - N/A   Clear
10:13 AM 17.6 °F 10.7 °F 12.2 °F 79% 30.57 in 10.0 mi WNW 4.6 mph - N/A   Clear
10:33 AM 17.6 °F 8.2 °F 12.2 °F 79% 30.57 in 10.0 mi West 6.9 mph - N/A   Clear
10:53 AM 17.6 °F 10.7 °F 12.2 °F 79% 30.57 in 10.0 mi NW 4.6 mph - N/A   Clear
11:13 AM 19.4 °F 11.5 °F 12.2 °F 74% 30.56 in 10.0 mi NW 5.8 mph - N/A   Clear
11:33 AM 21.2 °F 11.7 °F 10.4 °F 63% 30.55 in 10.0 mi WNW 8.1 mph - N/A   Clear
11:53 AM 21.2 °F 13.6 °F 12.2 °F 68% 30.55 in 10.0 mi WNW 5.8 mph - N/A   Clear
12:13 PM 23.0 °F 14.7 °F 12.2 °F 63% 30.55 in 10.0 mi West 6.9 mph - N/A   Clear
12:33 PM 24.8 °F 16.1 °F 12.2 °F 59% 30.55 in 10.0 mi West 8.1 mph - N/A   Clear
12:53 PM 26.6 °F 20.0 °F 12.2 °F 55% 30.55 in 10.0 mi WSW 5.8 mph - N/A   Clear
1:13 PM 26.6 °F 17.5 °F 10.4 °F 51% 30.54 in 10.0 mi WSW 9.2 mph - N/A   Clear
1:33 PM 26.6 °F 18.2 °F 10.4 °F 51% 30.52 in 10.0 mi SW 8.1 mph - N/A   Clear
1:53 PM 26.6 °F 18.2 °F 10.4 °F 51% 30.51 in 10.0 mi SW 8.1 mph - N/A   Clear
2:13 PM 28.4 °F 19.1 °F 10.4 °F 47% 30.50 in 10.0 mi SW 10.4 mph - N/A   Clear
2:33 PM 28.4 °F 18.0 °F 10.4 °F 47% 30.49 in 10.0 mi SW 12.7 mph - N/A   Clear
2:53 PM 28.4 °F 19.7 °F 12.2 °F 51% 30.49 in 10.0 mi SW 9.2 mph - N/A   Clear
3:13 PM 28.4 °F 20.4 °F 12.2 °F 51% 30.48 in 10.0 mi SW 8.1 mph 16.1 mph N/A   Clear
3:33 PM 28.4 °F 19.1 °F 12.2 °F 51% 30.47 in 10.0 mi SW 10.4 mph - N/A   Clear
3:53 PM 28.4 °F 19.7 °F 12.2 °F 51% 30.48 in 10.0 mi SW 9.2 mph - N/A   Clear
4:13 PM 28.4 °F 21.2 °F 14.0 °F 55% 30.48 in 10.0 mi SW 6.9 mph - N/A   Clear
4:33 PM 28.4 °F 21.2 °F 14.0 °F 55% 30.48 in 10.0 mi SW 6.9 mph - N/A   Clear
4:53 PM 28.4 °F 21.2 °F 14.0 °F 55% 30.48 in 10.0 mi WSW 6.9 mph - N/A   Clear
5:13 PM 28.4 °F 19.7 °F 12.2 °F 51% 30.47 in 10.0 mi WSW 9.2 mph - N/A   Clear
5:33 PM 26.6 °F 16.8 °F 12.2 °F 55% 30.47 in 10.0 mi WSW 10.4 mph 16.1 mph N/A   Clear
5:53 PM 26.6 °F 16.8 °F 10.4 °F 51% 30.47 in 10.0 mi WSW 10.4 mph - N/A   Clear
6:13 PM 26.6 °F 16.8 °F 12.2 °F 55% 30.47 in 10.0 mi WSW 10.4 mph - N/A   Clear
6:33 PM 24.8 °F 14.6 °F 10.4 °F 54% 30.47 in 10.0 mi WSW 10.4 mph - N/A   Clear
6:53 PM 24.8 °F 15.3 °F 10.4 °F 54% 30.47 in 10.0 mi WSW 9.2 mph - N/A   Clear
7:13 PM 24.8 °F 13.4 °F 10.4 °F 54% 30.47 in 10.0 mi WSW 12.7 mph 18.4 mph N/A   Clear
7:33 PM 24.8 °F 14.6 °F 12.2 °F 59% 30.48 in 10.0 mi West 10.4 mph - N/A   Clear
7:53 PM 24.8 °F 15.3 °F 12.2 °F 59% 30.49 in 10.0 mi WNW 9.2 mph 18.4 mph N/A   Clear
8:13 PM 23.0 °F 13.9 °F 12.2 °F 63% 30.50 in 10.0 mi WNW 8.1 mph - N/A   Clear
8:33 PM 23.0 °F 12.4 °F 12.2 °F 63% 30.50 in 10.0 mi NW 10.4 mph 17.3 mph N/A   Clear
8:53 PM 21.2 °F 10.1 °F 14.0 °F 74% 30.51 in 10.0 mi NW 10.4 mph 18.4 mph N/A   Scattered Clouds
9:13 PM 21.2 °F 11.7 °F 12.2 °F 68% 30.51 in 10.0 mi NW 8.1 mph 18.4 mph N/A   Clear
9:33 PM 21.2 °F 10.1 °F 14.0 °F 74% 30.51 in 10.0 mi NW 10.4 mph 17.3 mph N/A   Clear
9:53 PM 21.2 °F 10.9 °F 14.0 °F 74% 30.52 in 10.0 mi NW 9.2 mph - N/A   Clear
10:13 PM 21.2 °F 11.7 °F 15.8 °F 80% 30.52 in 10.0 mi NW 8.1 mph 16.1 mph N/A   Mostly Cloudy
10:33 PM 21.2 °F 7.8 °F 15.8 °F 80% 30.53 in 10.0 mi NNW 15.0 mph 24.2 mph N/A   Mostly Cloudy
10:53 PM 19.4 °F 5.5 °F 10.4 °F 68% 30.53 in 10.0 mi NNW 15.0 mph 23.0 mph N/A   Scattered Clouds
11:13 PM 19.4 °F 7.2 °F 10.4 °F 68% 30.54 in 10.0 mi NW 11.5 mph 18.4 mph N/A   Clear
11:33 PM 17.6 °F 4.3 °F 10.4 °F 73% 30.54 in 10.0 mi NW 12.7 mph 20.7 mph N/A   Scattered Clouds
11:53 PM 17.6 °F 4.3 °F 6.8 °F 63% 30.55 in 10.0 mi NW 12.7 mph 23.0 mph N/A   Clear